createdAt,value
2022-10-01T00:02:17.720Z,100368.47
2022-10-01T00:04:44.486Z,100362.97
2022-10-01T00:07:15.196Z,100362.78
2022-10-01T00:09:42.145Z,100367.72
2022-10-01T00:12:08.934Z,100365.31
2022-10-01T00:14:38.962Z,100364.38
2022-10-01T00:17:05.702Z,100367.50
2022-10-01T00:19:32.449Z,100365.56
2022-10-01T00:21:59.259Z,100357.66
2022-10-01T00:24:26.033Z,100359.16
2022-10-01T00:26:53.103Z,100356.00
2022-10-01T00:29:19.865Z,100358.59
2022-10-01T00:31:46.680Z,100368.44
2022-10-01T00:34:15.318Z,100359.59
2022-10-01T00:36:42.206Z,100366.38
2022-10-01T00:39:09.268Z,100356.00
2022-10-01T00:41:36.306Z,100354.41
2022-10-01T00:44:03.237Z,100348.81
2022-10-01T00:46:29.982Z,100346.31
2022-10-01T00:48:58.079Z,100342.94
2022-10-01T00:51:24.905Z,100336.22
2022-10-01T00:53:51.715Z,100338.31
2022-10-01T00:56:18.842Z,100322.06
2022-10-01T00:58:45.626Z,100326.06
2022-10-01T01:01:12.421Z,100325.38
2022-10-01T01:03:39.202Z,100337.59
2022-10-01T01:06:08.031Z,100326.22
2022-10-01T01:08:34.780Z,100322.91
2022-10-01T01:11:01.662Z,100329.91
2022-10-01T01:13:28.425Z,100326.53
2022-10-01T01:15:55.378Z,100319.28
2022-10-01T01:18:22.240Z,100320.50
2022-10-01T01:20:48.994Z,100316.41
2022-10-01T01:23:18.608Z,100324.19
2022-10-01T01:25:45.365Z,100309.09
2022-10-01T01:28:12.197Z,100310.97
2022-10-01T01:30:40.165Z,100303.91
2022-10-01T01:33:07.009Z,100307.19
2022-10-01T01:35:33.774Z,100303.47
2022-10-01T01:38:01.636Z,100300.16
2022-10-01T01:40:28.401Z,100299.69
2022-10-01T01:42:55.798Z,100298.91
2022-10-01T01:45:22.553Z,100289.00
2022-10-01T01:47:49.319Z,100288.88
2022-10-01T01:50:16.372Z,100280.66
2022-10-01T01:52:43.113Z,100277.09
2022-10-01T01:55:09.906Z,100273.00
2022-10-01T01:57:36.699Z,100270.00
2022-10-01T02:00:03.873Z,100273.72
2022-10-01T02:02:33.051Z,100258.63
2022-10-01T02:05:00.517Z,100264.34
2022-10-01T02:07:27.265Z,100270.75
2022-10-01T02:09:54.024Z,100269.16
2022-10-01T02:12:20.824Z,100271.69
2022-10-01T02:14:47.601Z,100258.84
2022-10-01T02:17:16.455Z,100269.03
2022-10-01T02:19:44.296Z,100270.72
2022-10-01T02:22:11.060Z,100260.22
2022-10-01T02:24:38.349Z,100256.75
2022-10-01T02:27:05.117Z,100255.28
2022-10-01T02:29:31.856Z,100251.00
2022-10-01T02:31:58.658Z,100250.66
2022-10-01T02:34:25.477Z,100245.25
2022-10-01T02:36:52.214Z,100244.19
2022-10-01T02:39:18.945Z,100244.97
2022-10-01T02:41:45.718Z,100243.00
2022-10-01T02:44:12.509Z,100244.94
2022-10-01T02:46:39.934Z,100248.31
2022-10-01T02:49:06.691Z,100240.22
2022-10-01T02:51:33.890Z,100239.75
2022-10-01T02:54:00.931Z,100240.09
2022-10-01T02:56:49.031Z,100237.59
2022-10-01T02:59:16.270Z,100245.88
2022-10-01T03:01:43.099Z,100245.00
2022-10-01T03:04:09.899Z,100234.59
2022-10-01T03:06:36.731Z,100227.03
2022-10-01T03:09:03.537Z,100221.84
2022-10-01T03:11:30.508Z,100217.81
2022-10-01T03:13:58.187Z,100217.34
2022-10-01T03:16:25.033Z,100218.78
2022-10-01T03:18:51.821Z,100212.72
2022-10-01T03:21:18.567Z,100199.09
2022-10-01T03:23:45.342Z,100209.50
2022-10-01T03:26:12.124Z,100200.34
2022-10-01T03:28:38.909Z,100204.88
2022-10-01T03:31:05.792Z,100201.22
2022-10-01T03:33:32.601Z,100194.78
2022-10-01T03:35:59.567Z,100195.97
2022-10-01T03:38:26.305Z,100180.53
2022-10-01T03:40:53.159Z,100178.97
2022-10-01T03:43:19.901Z,100178.19
2022-10-01T03:45:46.676Z,100179.25
2022-10-01T03:48:13.490Z,100168.13
2022-10-01T03:50:40.239Z,100172.16
2022-10-01T03:53:07.061Z,100163.63
2022-10-01T03:55:33.949Z,100159.91
2022-10-01T03:58:01.396Z,100150.78
2022-10-01T04:00:28.158Z,100159.06
2022-10-01T04:02:54.986Z,100160.81
2022-10-01T04:05:21.769Z,100157.31
2022-10-01T04:07:49.817Z,100152.75
2022-10-01T04:10:16.639Z,100152.38
2022-10-01T04:12:43.985Z,100147.00
2022-10-01T04:15:10.733Z,100148.28
2022-10-01T04:17:37.500Z,100142.66
2022-10-01T04:20:04.278Z,100137.88
2022-10-01T04:22:31.106Z,100138.06
2022-10-01T04:24:57.891Z,100135.56
2022-10-01T04:27:25.847Z,100128.03
2022-10-01T04:29:52.603Z,100126.91
2022-10-01T04:32:21.525Z,100125.66
2022-10-01T04:34:54.530Z,100124.09
2022-10-01T04:37:21.444Z,100119.63
2022-10-01T04:39:48.556Z,100115.53
2022-10-01T04:42:15.320Z,100120.47
2022-10-01T04:44:42.075Z,100123.91
2022-10-01T04:47:08.975Z,100114.44
2022-10-01T04:49:36.016Z,100118.66
2022-10-01T04:52:02.756Z,100119.91
2022-10-01T04:54:29.526Z,100113.25
2022-10-01T04:56:57.596Z,100103.94
2022-10-01T04:59:24.328Z,100108.03
2022-10-01T05:01:51.126Z,100098.81
2022-10-01T05:04:18.376Z,100094.00
2022-10-01T05:06:45.255Z,100087.78
2022-10-01T05:09:12.038Z,100088.50
2022-10-01T05:11:39.031Z,100086.28
2022-10-01T05:14:05.783Z,100084.09
2022-10-01T05:16:32.704Z,100084.66
2022-10-01T05:18:59.536Z,100081.91
2022-10-01T05:21:26.295Z,100079.84
2022-10-01T05:23:53.129Z,100078.28
2022-10-01T05:26:20.093Z,100074.34
2022-10-01T05:28:46.849Z,100078.44
2022-10-01T05:31:14.158Z,100083.41
2022-10-01T05:33:40.949Z,100078.28
2022-10-01T05:36:07.782Z,100073.69
2022-10-01T05:38:37.406Z,100073.19
2022-10-01T05:41:04.332Z,100070.81
2022-10-01T05:43:31.354Z,100069.94
2022-10-01T05:45:58.206Z,100072.63
2022-10-01T05:48:24.980Z,100058.03
2022-10-01T05:50:51.739Z,100055.84
2022-10-01T05:53:18.494Z,100050.09
2022-10-01T05:55:45.272Z,100048.19
2022-10-01T05:58:12.049Z,100042.69
2022-10-01T06:00:38.824Z,100029.66
2022-10-01T06:03:05.655Z,100034.06
2022-10-01T06:05:32.530Z,100034.63
2022-10-01T06:07:59.305Z,100021.59
2022-10-01T06:10:28.076Z,100024.84
2022-10-01T06:12:54.917Z,100020.69
2022-10-01T06:15:21.725Z,100019.19
2022-10-01T06:17:48.466Z,100016.78
2022-10-01T06:20:15.212Z,100007.69
2022-10-01T06:22:42.892Z,100006.19
2022-10-01T06:25:10.158Z,100005.78
2022-10-01T06:27:36.909Z,100004.81
2022-10-01T06:30:03.696Z,100010.09
2022-10-01T06:32:34.158Z,100011.72
2022-10-01T06:35:01.755Z,100005.91
2022-10-01T06:37:28.637Z,99998.44
2022-10-01T06:39:55.372Z,99995.78
2022-10-01T06:42:22.189Z,99989.53
2022-10-01T06:44:49.001Z,99991.66
2022-10-01T06:47:15.780Z,99983.84
2022-10-01T06:49:46.745Z,99977.16
2022-10-01T06:52:32.937Z,99970.31
2022-10-01T06:55:01.218Z,99967.97
2022-10-01T06:57:27.981Z,99962.72
2022-10-01T06:59:54.743Z,99957.66
2022-10-01T07:02:21.523Z,99958.66
2022-10-01T07:04:48.322Z,99957.16
2022-10-01T07:07:15.069Z,99948.59
2022-10-01T07:09:41.816Z,99948.16
2022-10-01T07:12:08.788Z,99938.00
2022-10-01T07:14:35.573Z,99939.41
2022-10-01T07:17:02.344Z,99931.00
2022-10-01T07:19:30.906Z,99927.16
2022-10-01T07:21:57.678Z,99925.13
2022-10-01T07:24:24.506Z,99925.41
2022-10-01T07:26:51.269Z,99914.53
2022-10-01T07:29:18.106Z,99915.72
2022-10-01T07:31:44.884Z,99921.91
2022-10-01T07:34:11.660Z,99909.91
2022-10-01T07:36:38.412Z,99903.56
2022-10-01T07:39:05.149Z,99907.91
2022-10-01T07:41:32.455Z,99900.31
2022-10-01T07:43:59.399Z,99901.44
2022-10-01T07:46:26.140Z,99885.03
2022-10-01T07:48:52.901Z,99882.50
2022-10-01T07:51:19.687Z,99872.41
2022-10-01T07:53:46.482Z,99870.66
2022-10-01T07:56:13.913Z,99862.72
2022-10-01T07:58:41.087Z,99860.06
2022-10-01T08:01:08.026Z,99849.16
2022-10-01T08:03:34.799Z,99855.06
2022-10-01T08:06:06.747Z,99854.91
2022-10-01T08:08:33.572Z,99860.06
2022-10-01T08:11:00.327Z,99848.72
2022-10-01T08:13:27.236Z,99849.16
2022-10-01T08:15:54.685Z,99845.97
2022-10-01T08:18:21.515Z,99849.81
2022-10-01T08:20:48.274Z,99847.84
2022-10-01T08:23:15.023Z,99844.94
2022-10-01T08:25:41.802Z,99847.69
2022-10-01T08:28:09.013Z,99843.13
2022-10-01T08:30:35.884Z,99836.84
2022-10-01T08:33:03.823Z,99834.41
2022-10-01T08:35:30.625Z,99837.72
2022-10-01T08:37:57.397Z,99841.22
2022-10-01T08:40:24.157Z,99831.75
2022-10-01T08:42:50.916Z,99839.00
2022-10-01T08:45:17.664Z,99844.97
2022-10-01T08:47:44.407Z,99838.03
2022-10-01T08:50:11.160Z,99832.53
2022-10-01T08:52:37.931Z,99832.06
2022-10-01T08:55:04.678Z,99831.28
2022-10-01T08:57:31.460Z,99839.13
2022-10-01T08:59:58.667Z,99841.50
2022-10-01T09:02:25.441Z,99832.91
2022-10-01T09:04:52.240Z,99831.66
2022-10-01T09:07:19.165Z,99840.94
2022-10-01T09:09:45.983Z,99840.03
2022-10-01T09:12:12.732Z,99832.72
2022-10-01T09:14:39.480Z,99832.31
2022-10-01T09:17:06.303Z,99840.47
2022-10-01T09:19:33.067Z,99841.56
2022-10-01T09:21:59.869Z,99838.47
2022-10-01T09:24:26.629Z,99837.03
2022-10-01T09:26:53.394Z,99827.78
2022-10-01T09:29:20.158Z,99821.78
2022-10-01T09:31:47.183Z,99826.91
2022-10-01T09:34:14.014Z,99815.78
2022-10-01T09:36:40.760Z,99815.34
2022-10-01T09:39:07.510Z,99812.38
2022-10-01T09:41:34.540Z,99808.03
2022-10-01T09:44:01.869Z,99804.66
2022-10-01T09:46:28.612Z,99807.47
2022-10-01T09:48:55.571Z,99805.38
2022-10-01T09:51:22.364Z,99805.88
2022-10-01T09:53:49.161Z,99799.25
2022-10-01T09:56:16.102Z,99797.88
2022-10-01T09:58:43.091Z,99800.34
2022-10-01T10:01:09.916Z,99796.22
2022-10-01T10:03:36.790Z,99792.34
2022-10-01T10:06:03.994Z,99795.72
2022-10-01T10:08:30.796Z,99794.88
2022-10-01T10:10:58.480Z,99796.41
2022-10-01T10:13:26.428Z,99797.47
2022-10-01T10:15:53.220Z,99795.88
2022-10-01T10:18:23.826Z,99792.16
2022-10-01T10:20:50.846Z,99782.13
2022-10-01T10:23:17.645Z,99781.03
2022-10-01T10:25:44.413Z,99768.44
2022-10-01T10:28:11.236Z,99778.84
2022-10-01T10:30:38.076Z,99773.63
2022-10-01T10:33:04.974Z,99764.38
2022-10-01T10:35:31.841Z,99773.41
2022-10-01T10:37:58.604Z,99774.19
2022-10-01T10:40:29.296Z,99781.00
2022-10-01T10:42:56.660Z,99782.19
2022-10-01T10:45:23.457Z,99769.78
2022-10-01T10:47:50.230Z,99774.00
2022-10-01T10:50:16.968Z,99777.53
2022-10-01T10:52:45.696Z,99777.22
2022-10-01T10:55:13.680Z,99768.91
2022-10-01T10:57:40.429Z,99772.03
2022-10-01T11:00:08.182Z,99771.03
2022-10-01T11:02:35.028Z,99774.56
2022-10-01T11:05:01.926Z,99779.41
2022-10-01T11:07:28.757Z,99768.31
2022-10-01T11:09:55.571Z,99773.25
2022-10-01T11:12:22.333Z,99765.16
2022-10-01T11:14:49.080Z,99773.34
2022-10-01T11:17:18.036Z,99769.19
2022-10-01T11:19:44.837Z,99766.75
2022-10-01T11:22:11.601Z,99761.88
2022-10-01T11:24:38.376Z,99764.72
2022-10-01T11:27:05.122Z,99754.28
2022-10-01T11:29:31.877Z,99750.50
2022-10-01T11:31:58.879Z,99747.81
2022-10-01T11:34:25.666Z,99741.88
2022-10-01T11:36:55.454Z,99744.25
2022-10-01T11:39:22.527Z,99744.63
2022-10-01T11:41:49.385Z,99747.69
2022-10-01T11:44:16.412Z,99750.84
2022-10-01T11:46:43.229Z,99758.47
2022-10-01T11:49:10.090Z,99748.66
2022-10-01T11:51:36.835Z,99757.00
2022-10-01T11:54:03.633Z,99755.31
2022-10-01T11:56:49.014Z,99766.53
2022-10-01T11:59:15.781Z,99757.38
2022-10-01T12:01:42.581Z,99759.38
2022-10-01T12:04:09.368Z,99757.91
2022-10-01T12:06:36.441Z,99770.56
2022-10-01T12:09:03.360Z,99758.41
2022-10-01T12:11:30.109Z,99764.28
2022-10-01T12:13:56.881Z,99758.78
2022-10-01T12:16:23.817Z,99750.91
2022-10-01T12:18:50.594Z,99749.13
2022-10-01T12:21:17.349Z,99748.53
2022-10-01T12:23:44.097Z,99749.06
2022-10-01T12:26:10.850Z,99746.75
2022-10-01T12:28:37.632Z,99752.56
2022-10-01T12:31:04.446Z,99751.06
2022-10-01T12:33:32.470Z,99749.31
2022-10-01T12:35:59.236Z,99751.41
2022-10-01T12:38:25.981Z,99761.31
2022-10-01T12:40:52.726Z,99761.47
2022-10-01T12:43:20.673Z,99760.84
2022-10-01T12:45:47.674Z,99752.06
2022-10-01T12:48:16.305Z,99752.59
2022-10-01T12:50:43.065Z,99759.34
2022-10-01T12:53:09.800Z,99755.63
2022-10-01T12:55:37.074Z,99759.31
2022-10-01T12:58:03.849Z,99765.97
2022-10-01T13:00:31.816Z,99768.09
2022-10-01T13:02:58.698Z,99764.84
2022-10-01T13:05:25.456Z,99765.88
2022-10-01T13:07:52.554Z,99769.72
2022-10-01T13:10:19.288Z,99772.53
2022-10-01T13:12:46.154Z,99773.00
2022-10-01T13:15:12.902Z,99767.69
2022-10-01T13:17:39.767Z,99761.97
2022-10-01T13:20:06.532Z,99772.47
2022-10-01T13:22:33.270Z,99765.69
2022-10-01T13:25:00.825Z,99772.22
2022-10-01T13:27:28.339Z,99786.13
2022-10-01T13:29:55.129Z,99790.06
2022-10-01T13:32:21.872Z,99786.56
2022-10-01T13:34:48.628Z,99787.28
2022-10-01T13:37:15.439Z,99782.88
2022-10-01T13:39:43.330Z,99783.81
2022-10-01T13:42:10.093Z,99777.31
2022-10-01T13:44:36.863Z,99768.81
2022-10-01T13:47:03.807Z,99777.16
2022-10-01T13:49:30.571Z,99780.66
2022-10-01T13:51:57.328Z,99780.88
2022-10-01T13:54:24.170Z,99787.56
2022-10-01T13:56:50.942Z,99788.47
2022-10-01T13:59:17.681Z,99785.19
2022-10-01T14:01:44.461Z,99794.22
2022-10-01T14:04:11.221Z,99792.41
2022-10-01T14:06:38.050Z,99784.50
2022-10-01T14:09:04.851Z,99797.56
2022-10-01T14:11:50.455Z,99789.25
2022-10-01T14:14:35.878Z,99783.91
2022-10-01T14:17:02.646Z,99784.69
2022-10-01T14:19:29.445Z,99785.03
2022-10-01T14:21:56.241Z,99794.88
2022-10-01T14:24:23.008Z,99791.53
2022-10-01T14:26:49.761Z,99794.56
2022-10-01T14:29:16.539Z,99801.97
2022-10-01T14:31:46.439Z,99802.47
2022-10-01T14:34:15.768Z,99798.00
2022-10-01T14:36:42.595Z,99789.25
2022-10-01T14:39:09.369Z,99792.28
2022-10-01T14:41:36.185Z,99790.19
2022-10-01T14:44:02.963Z,99791.81
2022-10-01T14:46:29.793Z,99786.00
2022-10-01T14:48:56.574Z,99794.94
2022-10-01T14:51:23.337Z,99803.22
2022-10-01T14:53:50.105Z,99806.59
2022-10-01T14:56:16.878Z,99814.66
2022-10-01T14:58:43.628Z,99804.47
2022-10-01T15:01:10.388Z,99811.06
2022-10-01T15:03:37.414Z,99800.69
2022-10-01T15:06:04.265Z,99797.72
2022-10-01T15:08:31.058Z,99798.34
2022-10-01T15:10:57.868Z,99799.94
2022-10-01T15:13:24.768Z,99797.16
2022-10-01T15:15:51.537Z,99796.72
2022-10-01T15:18:18.298Z,99809.19
2022-10-01T15:20:45.044Z,99807.91
2022-10-01T15:23:11.811Z,99809.88
2022-10-01T15:25:38.558Z,99812.44
2022-10-01T15:28:06.978Z,99813.28
2022-10-01T15:30:33.787Z,99816.91
2022-10-01T15:33:00.545Z,99817.13
2022-10-01T15:35:27.309Z,99821.22
2022-10-01T15:37:54.068Z,99821.09
2022-10-01T15:40:20.814Z,99828.50
2022-10-01T15:42:48.484Z,99831.00
2022-10-01T15:45:15.267Z,99835.53
2022-10-01T15:47:42.535Z,99833.91
2022-10-01T15:50:09.300Z,99849.75
2022-10-01T15:52:54.570Z,99847.91
2022-10-01T15:55:24.166Z,99846.22
2022-10-01T15:57:50.964Z,99837.91
2022-10-01T16:00:17.722Z,99847.81
2022-10-01T16:02:44.460Z,99840.41
2022-10-01T16:05:11.209Z,99841.97
2022-10-01T16:07:40.128Z,99856.56
2022-10-01T16:10:06.873Z,99850.34
2022-10-01T16:12:33.612Z,99864.41
2022-10-01T16:15:00.453Z,99865.38
2022-10-01T16:17:27.839Z,99893.06
2022-10-01T16:19:56.608Z,99914.75
2022-10-01T16:22:23.405Z,99919.06
2022-10-01T16:24:50.155Z,99918.41
2022-10-01T16:27:17.989Z,99910.16
2022-10-01T16:29:44.760Z,99917.97
2022-10-01T16:32:11.511Z,99921.97
2022-10-01T16:34:38.402Z,99920.22
2022-10-01T16:37:05.157Z,99917.31
2022-10-01T16:39:31.924Z,99922.59
2022-10-01T16:42:22.289Z,99919.06
2022-10-01T16:44:45.546Z,99931.88
2022-10-01T16:47:12.347Z,99934.53
2022-10-01T16:49:39.101Z,99935.50
2022-10-01T16:52:06.171Z,99938.16
2022-10-01T16:54:32.918Z,99936.81
2022-10-01T16:57:00.352Z,99951.84
2022-10-01T16:59:27.106Z,99970.91
2022-10-01T17:01:54.853Z,99971.34
2022-10-01T17:04:21.667Z,99980.44
2022-10-01T17:06:48.431Z,99983.50
2022-10-01T17:09:16.172Z,99976.44
2022-10-01T17:11:43.572Z,99980.91
2022-10-01T17:14:10.331Z,99981.75
2022-10-01T17:16:37.383Z,99991.22
2022-10-01T17:19:04.348Z,99993.09
2022-10-01T17:21:31.157Z,99994.84
2022-10-01T17:23:58.009Z,99993.53
2022-10-01T17:26:24.805Z,100004.22
2022-10-01T17:28:51.631Z,100007.09
2022-10-01T17:31:18.492Z,100023.72
2022-10-01T17:33:45.506Z,100034.28
2022-10-01T17:36:12.378Z,100033.59
2022-10-01T17:38:40.143Z,100045.69
2022-10-01T17:41:07.401Z,100040.88
2022-10-01T17:43:34.351Z,100055.53
2022-10-01T17:46:01.345Z,100062.47
2022-10-01T17:48:28.197Z,100066.00
2022-10-01T17:50:54.961Z,100067.47
2022-10-01T17:53:21.698Z,100078.69
2022-10-01T17:55:48.446Z,100077.56
2022-10-01T17:58:15.199Z,100072.91
2022-10-01T18:00:42.004Z,100083.28
2022-10-01T18:03:09.034Z,100080.13
2022-10-01T18:05:35.818Z,100082.28
2022-10-01T18:08:02.581Z,100092.91
2022-10-01T18:10:29.473Z,100095.75
2022-10-01T18:12:57.538Z,100095.63
2022-10-01T18:15:24.293Z,100092.06
2022-10-01T18:18:48.542Z,100100.94
2022-10-01T18:20:40.918Z,100111.91
2022-10-01T18:23:07.712Z,100111.91
2022-10-01T18:25:34.497Z,100119.31
2022-10-01T18:28:01.288Z,100124.81
2022-10-01T18:30:28.058Z,100115.13
2022-10-01T18:32:56.923Z,100125.97
2022-10-01T18:35:23.923Z,100131.34
2022-10-01T18:37:50.671Z,100129.66
2022-10-01T18:40:17.550Z,100138.25
2022-10-01T18:42:44.351Z,100142.09
2022-10-01T18:45:11.114Z,100140.31
2022-10-01T18:47:37.865Z,100140.69
2022-10-01T18:50:04.684Z,100135.50
2022-10-01T18:52:31.429Z,100131.84
2022-10-01T18:54:58.213Z,100137.31
2022-10-01T18:57:25.007Z,100141.84
2022-10-01T18:59:51.756Z,100150.56
2022-10-01T19:02:18.610Z,100144.09
2022-10-01T19:04:45.488Z,100139.38
2022-10-01T19:07:12.242Z,100156.81
2022-10-01T19:09:38.990Z,100154.31
2022-10-01T19:12:05.820Z,100164.34
2022-10-01T19:14:32.555Z,100171.25
2022-10-01T19:16:59.346Z,100168.53
2022-10-01T19:19:26.132Z,100174.47
2022-10-01T19:21:53.500Z,100181.66
2022-10-01T19:24:20.379Z,100191.09
2022-10-01T19:26:47.143Z,100188.88
2022-10-01T19:29:13.904Z,100201.69
2022-10-01T19:31:40.666Z,100204.63
2022-10-01T19:34:07.597Z,100196.25
2022-10-01T19:36:34.820Z,100209.56
2022-10-01T19:39:01.651Z,100213.09
2022-10-01T19:41:28.429Z,100218.34
2022-10-01T19:43:55.230Z,100216.75
2022-10-01T19:46:22.026Z,100218.22
2022-10-01T19:48:48.894Z,100230.53
2022-10-01T19:51:15.684Z,100223.03
2022-10-01T19:53:42.642Z,100216.94
2022-10-01T19:56:09.406Z,100224.22
2022-10-01T19:58:36.173Z,100233.78
2022-10-01T20:01:02.981Z,100236.78
2022-10-01T20:03:29.761Z,100230.53
2022-10-01T20:05:56.586Z,100234.97
2022-10-01T20:08:28.732Z,100251.84
2022-10-01T20:10:55.568Z,100257.63
2022-10-01T20:13:22.310Z,100256.66
2022-10-01T20:15:49.064Z,100268.53
2022-10-01T20:18:15.981Z,100280.66
2022-10-01T20:20:43.470Z,100284.16
2022-10-01T20:23:11.002Z,100288.25
2022-10-01T20:25:37.782Z,100291.03
2022-10-01T20:28:05.005Z,100293.38
2022-10-01T20:30:32.645Z,100305.63
2022-10-01T20:33:01.424Z,100306.78
2022-10-01T20:35:28.174Z,100300.84
2022-10-01T20:37:54.966Z,100310.66
2022-10-01T20:40:24.997Z,100316.16
2022-10-01T20:42:51.820Z,100321.44
2022-10-01T20:45:18.607Z,100318.06
2022-10-01T20:47:47.564Z,100322.50
2022-10-01T20:50:14.320Z,100320.13
2022-10-01T20:52:41.062Z,100322.19
2022-10-01T20:55:07.835Z,100329.47
2022-10-01T20:57:34.836Z,100325.41
2022-10-01T21:00:02.335Z,100337.31
2022-10-01T21:02:29.150Z,100328.81
2022-10-01T21:04:56.308Z,100335.84
2022-10-01T21:07:23.519Z,100342.91
2022-10-01T21:09:50.292Z,100353.88
2022-10-01T21:12:17.369Z,100352.69
2022-10-01T21:14:45.500Z,100360.59
2022-10-01T21:17:12.273Z,100356.44
2022-10-01T21:19:39.015Z,100364.38
2022-10-01T21:22:05.809Z,100377.91
2022-10-01T21:24:32.711Z,100378.59
2022-10-01T21:26:59.497Z,100374.78
2022-10-01T21:29:26.492Z,100377.66
2022-10-01T21:31:53.317Z,100379.72
2022-10-01T21:34:20.124Z,100387.91
2022-10-01T21:36:46.878Z,100385.38
2022-10-01T21:39:13.634Z,100395.13
2022-10-01T21:41:41.739Z,100391.34
2022-10-01T21:44:11.116Z,100393.63
2022-10-01T21:46:38.618Z,100415.38
2022-10-01T21:49:05.592Z,100412.56
2022-10-01T21:51:32.338Z,100412.44
2022-10-01T21:53:59.165Z,100419.28
2022-10-01T21:56:26.389Z,100427.56
2022-10-01T21:58:53.129Z,100429.41
2022-10-01T22:01:19.988Z,100431.34
2022-10-01T22:03:46.776Z,100438.19
2022-10-01T22:06:14.825Z,100439.84
2022-10-01T22:08:41.638Z,100448.34
2022-10-01T22:11:08.381Z,100456.66
2022-10-01T22:13:35.285Z,100445.63
2022-10-01T22:16:02.271Z,100447.91
2022-10-01T22:18:29.082Z,100449.66
2022-10-01T22:20:55.849Z,100462.69
2022-10-01T22:23:22.641Z,100474.25
2022-10-01T22:25:49.425Z,100468.38
2022-10-01T22:28:16.237Z,100470.41
2022-10-01T22:30:43.056Z,100476.19
2022-10-01T22:33:09.800Z,100475.53
2022-10-01T22:35:36.557Z,100477.75
2022-10-01T22:38:03.373Z,100476.41
2022-10-01T22:40:30.948Z,100486.13
2022-10-01T22:42:57.706Z,100488.31
2022-10-01T22:45:24.519Z,100491.31
2022-10-01T22:47:51.318Z,100493.75
2022-10-01T22:50:18.077Z,100493.44
2022-10-01T22:52:44.844Z,100488.47
2022-10-01T22:55:11.618Z,100488.75
2022-10-01T22:57:38.370Z,100491.16
2022-10-01T23:00:05.223Z,100502.06
2022-10-01T23:02:32.079Z,100497.75
2022-10-01T23:04:58.913Z,100504.97
2022-10-01T23:07:25.769Z,100502.38
2022-10-01T23:09:52.517Z,100505.38
2022-10-01T23:12:19.262Z,100512.25
2022-10-01T23:14:46.026Z,100508.31
2022-10-01T23:17:12.773Z,100506.19
2022-10-01T23:19:39.764Z,100513.03
2022-10-01T23:22:06.576Z,100522.63
2022-10-01T23:24:33.318Z,100526.59
2022-10-01T23:27:00.073Z,100525.31
2022-10-01T23:29:26.869Z,100525.38
2022-10-01T23:31:53.675Z,100523.88
2022-10-01T23:34:20.492Z,100533.84
2022-10-01T23:36:47.294Z,100532.25
2022-10-01T23:39:14.041Z,100532.84
2022-10-01T23:41:40.797Z,100531.69
2022-10-01T23:44:07.578Z,100533.00
2022-10-01T23:46:34.740Z,100537.72
2022-10-01T23:49:01.721Z,100539.84
2022-10-01T23:51:28.525Z,100545.72
2022-10-01T23:53:55.297Z,100552.13
2022-10-01T23:56:40.901Z,100551.66
2022-10-01T23:59:07.644Z,100561.28
